createdAt,value
2023-02-14T00:01:44.562Z,8.52
2023-02-14T00:04:30.627Z,8.18
2023-02-14T00:07:16.895Z,10.35
2023-02-14T00:10:02.181Z,9.50
2023-02-14T00:12:47.671Z,8.60
2023-02-14T00:15:32.914Z,8.55
2023-02-14T00:18:19.725Z,7.90
2023-02-14T00:21:05.274Z,7.25
2023-02-14T00:23:50.371Z,6.88
2023-02-14T00:26:38.720Z,7.05
2023-02-14T00:29:28.103Z,7.63
2023-02-14T00:32:13.607Z,8.93
2023-02-14T00:35:00.255Z,10.10
2023-02-14T00:37:47.525Z,8.93
2023-02-14T00:40:32.985Z,9.18
2023-02-14T00:43:18.484Z,10.40
2023-02-14T00:46:04.148Z,8.75
2023-02-14T00:48:50.240Z,7.53
2023-02-14T00:51:35.765Z,7.25
2023-02-14T00:54:21.268Z,8.00
2023-02-14T00:57:06.997Z,7.93
2023-02-14T00:59:54.564Z,6.68
2023-02-14T01:02:40.538Z,6.85
2023-02-14T01:05:26.676Z,7.20
2023-02-14T01:08:12.214Z,7.55
2023-02-14T01:10:58.131Z,6.93
2023-02-14T01:13:47.317Z,7.13
2023-02-14T01:16:36.783Z,7.25
2023-02-14T01:19:22.088Z,6.97
2023-02-14T01:22:07.545Z,6.22
2023-02-14T01:24:53.764Z,7.15
2023-02-14T01:27:40.214Z,7.78
2023-02-14T01:30:25.845Z,7.88
2023-02-14T01:33:12.364Z,7.82
2023-02-14T01:35:58.418Z,7.85
2023-02-14T01:38:44.200Z,7.60
2023-02-14T01:41:32.595Z,7.82
2023-02-14T01:44:18.028Z,7.55
2023-02-14T01:47:07.570Z,7.20
2023-02-14T01:50:00.776Z,7.38
2023-02-14T01:52:55.665Z,7.80
2023-02-14T01:55:46.591Z,9.23
2023-02-14T01:58:37.020Z,8.82
2023-02-14T02:01:23.927Z,9.32
2023-02-14T02:04:15.586Z,8.68
2023-02-14T02:07:05.699Z,7.95
2023-02-14T02:09:57.046Z,8.10
2023-02-14T02:12:43.807Z,9.07
2023-02-14T02:15:34.058Z,8.50
2023-02-14T02:18:35.450Z,8.85
2023-02-14T02:21:33.667Z,8.60
2023-02-14T02:24:49.106Z,10.07
2023-02-14T02:27:44.759Z,10.32
2023-02-14T02:30:57.906Z,9.98
2023-02-14T02:33:43.878Z,10.63
2023-02-14T02:36:57.299Z,7.50
2023-02-14T02:40:11.417Z,9.40
2023-02-14T02:42:57.225Z,8.35
2023-02-14T02:46:04.428Z,8.88
2023-02-14T02:49:53.955Z,7.80
2023-02-14T02:53:04.275Z,7.43
2023-02-14T02:56:22.380Z,7.35
2023-02-14T02:59:43.349Z,7.32
2023-02-14T03:02:33.887Z,7.70
2023-02-14T03:05:19.606Z,7.40
2023-02-14T03:08:05.774Z,7.93
2023-02-14T03:10:53.700Z,7.38
2023-02-14T03:14:01.619Z,8.15
2023-02-14T03:17:04.749Z,7.93
2023-02-14T03:20:16.648Z,7.88
2023-02-14T03:23:18.085Z,8.50
2023-02-14T03:26:07.303Z,7.13
2023-02-14T03:28:57.974Z,7.75
2023-02-14T03:32:07.066Z,7.40
2023-02-14T03:35:21.539Z,7.50
2023-02-14T03:38:14.389Z,6.68
2023-02-14T03:41:07.444Z,8.38
2023-02-14T03:43:58.098Z,8.43
2023-02-14T03:46:52.611Z,7.28
2023-02-14T03:49:45.077Z,7.40
2023-02-14T03:52:34.248Z,6.95
2023-02-14T03:55:26.993Z,7.63
2023-02-14T03:58:17.069Z,7.43
2023-02-14T04:01:26.224Z,7.68
2023-02-14T04:04:17.964Z,6.78
2023-02-14T04:07:18.895Z,7.43
2023-02-14T04:10:05.187Z,6.95
2023-02-14T04:12:51.566Z,7.97
2023-02-14T04:15:37.496Z,7.25
2023-02-14T04:18:41.590Z,6.65
2023-02-14T04:21:30.243Z,7.18
2023-02-14T04:24:17.181Z,6.85
2023-02-14T04:27:12.213Z,8.07
2023-02-14T04:29:58.958Z,7.60
2023-02-14T04:32:45.329Z,6.53
2023-02-14T04:35:31.580Z,7.47
2023-02-14T04:38:17.798Z,8.15
2023-02-14T04:41:03.898Z,7.47
2023-02-14T04:43:49.489Z,6.85
2023-02-14T04:46:34.846Z,7.43
2023-02-14T04:49:20.330Z,6.22
2023-02-14T04:52:06.610Z,7.07
2023-02-14T04:54:52.221Z,6.82
2023-02-14T04:57:38.379Z,7.78
2023-02-14T05:00:24.892Z,6.72
2023-02-14T05:03:11.267Z,7.70
2023-02-14T05:05:57.189Z,6.85
2023-02-14T05:08:42.861Z,7.28
2023-02-14T05:11:30.302Z,6.95
2023-02-14T05:14:15.921Z,8.35
2023-02-14T05:17:01.358Z,8.23
2023-02-14T05:19:46.675Z,8.15
2023-02-14T05:22:32.945Z,7.32
2023-02-14T05:25:18.871Z,7.65
2023-02-14T05:28:04.901Z,7.03
2023-02-14T05:30:51.782Z,8.35
2023-02-14T05:33:37.761Z,8.68
2023-02-14T05:36:26.888Z,8.32
2023-02-14T05:39:14.638Z,9.27
2023-02-14T05:42:00.270Z,8.95
2023-02-14T05:44:46.720Z,7.93
2023-02-14T05:47:32.654Z,8.52
2023-02-14T05:50:18.505Z,8.25
2023-02-14T05:53:05.630Z,7.93
2023-02-14T05:55:53.751Z,7.80
2023-02-14T05:58:39.737Z,7.53
2023-02-14T06:01:25.556Z,7.43
2023-02-14T06:04:11.469Z,8.25
2023-02-14T06:06:58.393Z,8.35
2023-02-14T06:09:45.566Z,7.70
2023-02-14T06:12:31.218Z,7.68
2023-02-14T06:15:19.438Z,7.18
2023-02-14T06:18:07.179Z,7.38
2023-02-14T06:20:55.751Z,6.38
2023-02-14T06:23:42.410Z,7.38
2023-02-14T06:26:29.601Z,6.65
2023-02-14T06:29:18.481Z,6.32
2023-02-14T06:32:08.055Z,7.13
2023-02-14T06:34:54.024Z,7.35
2023-02-14T06:37:41.949Z,6.95
2023-02-14T06:40:29.087Z,7.40
2023-02-14T06:43:14.680Z,7.65
2023-02-14T06:46:01.313Z,6.82
2023-02-14T06:48:47.542Z,6.78
2023-02-14T06:51:33.373Z,8.07
2023-02-14T06:54:19.770Z,8.30
2023-02-14T06:57:06.124Z,8.93
2023-02-14T06:59:53.153Z,8.25
2023-02-14T07:02:38.872Z,9.20
2023-02-14T07:05:27.268Z,9.90
2023-02-14T07:08:13.543Z,10.27
2023-02-14T07:11:00.086Z,9.02
2023-02-14T07:13:49.349Z,9.43
2023-02-14T07:16:37.682Z,8.43
2023-02-14T07:19:33.911Z,7.82
2023-02-14T07:22:24.145Z,7.78
2023-02-14T07:25:16.163Z,8.90
2023-02-14T07:28:07.060Z,11.70
2023-02-14T07:30:53.891Z,9.65
2023-02-14T07:33:40.067Z,9.02
2023-02-14T07:36:26.498Z,11.10
2023-02-14T07:39:11.784Z,10.75
2023-02-14T07:41:59.920Z,11.63
2023-02-14T07:44:46.844Z,13.20
2023-02-14T07:47:32.607Z,12.40
2023-02-14T07:50:18.900Z,10.82
2023-02-14T07:53:05.712Z,11.23
2023-02-14T07:55:56.611Z,9.27
2023-02-14T07:58:42.428Z,10.50
2023-02-14T08:01:29.510Z,10.65
2023-02-14T08:04:16.582Z,7.68
2023-02-14T08:07:01.960Z,8.93
2023-02-14T08:09:48.875Z,11.20
2023-02-14T08:12:56.309Z,8.13
2023-02-14T08:16:01.814Z,7.40
2023-02-14T08:18:47.641Z,8.57
2023-02-14T08:21:34.092Z,8.13
2023-02-14T08:24:28.549Z,8.18
2023-02-14T08:31:12.390Z,8.00
2023-02-14T08:33:59.600Z,7.80
2023-02-14T08:36:45.727Z,7.82
2023-02-14T08:39:33.000Z,7.28
2023-02-14T08:42:18.285Z,7.32
2023-02-14T08:45:08.882Z,7.82
2023-02-14T08:47:55.395Z,9.00
2023-02-14T08:50:41.216Z,8.70
2023-02-14T08:53:26.866Z,8.75
2023-02-14T08:56:14.946Z,18.90
2023-02-14T08:59:00.976Z,11.88
2023-02-14T09:01:46.528Z,11.45
2023-02-14T09:04:35.462Z,9.35
2023-02-14T09:07:22.195Z,8.75
2023-02-14T09:10:08.944Z,8.20
2023-02-14T09:12:54.824Z,8.20
2023-02-14T09:15:40.663Z,8.38
2023-02-14T09:18:26.129Z,7.18
2023-02-14T09:21:14.843Z,8.38
2023-02-14T09:24:00.460Z,7.85
2023-02-14T09:26:45.935Z,8.27
2023-02-14T09:29:32.762Z,9.73
2023-02-14T09:32:19.219Z,10.18
2023-02-14T09:35:06.885Z,9.27
2023-02-14T09:37:52.449Z,9.25
2023-02-14T09:40:37.957Z,8.73
2023-02-14T09:43:39.396Z,8.98
2023-02-14T09:46:26.716Z,9.03
2023-02-14T09:49:19.870Z,8.93
2023-02-14T09:52:09.875Z,9.68
2023-02-14T09:55:01.322Z,9.88
2023-02-14T09:57:53.532Z,9.13
2023-02-14T10:00:46.977Z,6.90
2023-02-14T10:04:01.049Z,7.90
2023-02-14T10:07:10.282Z,7.80
2023-02-14T10:10:04.068Z,10.73
2023-02-14T10:13:08.201Z,8.45
2023-02-14T10:16:05.379Z,9.02
2023-02-14T10:19:18.739Z,7.05
2023-02-14T10:22:12.806Z,8.18
2023-02-14T10:25:06.604Z,9.85
2023-02-14T10:27:55.620Z,8.35
2023-02-14T10:30:58.873Z,8.50
2023-02-14T10:33:58.008Z,6.80
2023-02-14T10:37:02.827Z,8.00
2023-02-14T10:40:10.024Z,8.45
2023-02-14T10:43:23.106Z,8.73
2023-02-14T10:46:18.269Z,8.57
2023-02-14T10:49:22.704Z,8.95
2023-02-14T10:52:19.609Z,9.60
2023-02-14T10:55:41.490Z,10.23
2023-02-14T10:58:29.868Z,10.25
2023-02-14T11:01:18.097Z,9.77
2023-02-14T11:04:08.795Z,9.75
2023-02-14T11:06:54.445Z,9.63
2023-02-14T11:09:40.242Z,8.63
2023-02-14T11:12:40.482Z,8.48
2023-02-14T11:15:35.956Z,8.40
2023-02-14T11:18:32.031Z,8.02
2023-02-14T11:21:18.593Z,7.50
2023-02-14T11:24:17.860Z,7.90
2023-02-14T11:27:14.720Z,7.75
2023-02-14T11:30:21.626Z,8.43
2023-02-14T11:33:35.615Z,9.00
2023-02-14T11:36:21.620Z,7.57
2023-02-14T11:39:33.824Z,7.32
2023-02-14T11:42:40.473Z,7.60
2023-02-14T11:45:33.138Z,7.18
2023-02-14T11:48:37.187Z,7.68
2023-02-14T11:51:36.965Z,6.65
2023-02-14T11:54:32.285Z,6.35
2023-02-14T11:57:22.087Z,6.57
2023-02-14T12:00:20.229Z,6.97
2023-02-14T12:03:06.819Z,6.13
2023-02-14T12:05:57.699Z,6.13
2023-02-14T12:08:43.661Z,7.05
2023-02-14T12:11:30.326Z,7.43
2023-02-14T12:14:30.276Z,7.07
2023-02-14T12:17:38.215Z,6.88
2023-02-14T12:20:50.066Z,6.70
2023-02-14T12:23:45.002Z,6.70
2023-02-14T12:26:43.488Z,6.53
2023-02-14T12:29:40.293Z,6.40
2023-02-14T12:32:28.810Z,6.60
2023-02-14T12:35:17.720Z,7.10
2023-02-14T12:38:09.438Z,7.32
2023-02-14T12:41:07.261Z,7.97
2023-02-14T12:43:58.452Z,6.90
2023-02-14T12:47:00.357Z,6.40
2023-02-14T12:50:20.166Z,8.40
2023-02-14T12:53:35.804Z,9.80
2023-02-14T12:56:34.708Z,8.32
2023-02-14T12:59:40.967Z,8.77
2023-02-14T13:03:02.416Z,6.90
2023-02-14T13:05:55.191Z,6.90
2023-02-14T13:09:21.548Z,4.53
2023-02-14T13:12:07.533Z,6.65
2023-02-14T13:15:17.288Z,6.50
2023-02-14T13:18:17.648Z,6.50
2023-02-14T13:21:08.959Z,6.57
2023-02-14T13:24:03.579Z,7.07
2023-02-14T13:26:56.380Z,7.50
2023-02-14T13:29:50.667Z,6.00
2023-02-14T13:32:41.425Z,6.20
2023-02-14T13:35:29.164Z,6.05
2023-02-14T13:38:19.138Z,6.15
2023-02-14T13:41:07.719Z,7.05
2023-02-14T13:44:00.031Z,6.38
2023-02-14T13:46:50.117Z,6.50
2023-02-14T13:49:39.779Z,6.35
2023-02-14T13:52:48.813Z,6.25
2023-02-14T13:55:43.574Z,9.05
2023-02-14T13:58:29.553Z,7.85
2023-02-14T14:01:48.298Z,8.50
2023-02-14T14:04:36.645Z,7.47
2023-02-14T14:07:30.855Z,8.00
2023-02-14T14:10:45.956Z,7.63
2023-02-14T14:13:40.965Z,8.40
2023-02-14T14:16:31.652Z,8.38
2023-02-14T14:19:17.216Z,7.97
2023-02-14T14:22:14.493Z,7.07
2023-02-14T14:25:05.824Z,7.45
2023-02-14T14:27:51.250Z,8.03
2023-02-14T14:30:38.861Z,7.40
2023-02-14T14:33:34.067Z,7.80
2023-02-14T14:36:24.040Z,6.93
2023-02-14T14:39:10.866Z,8.50
2023-02-14T14:42:06.924Z,8.15
2023-02-14T14:44:57.310Z,7.07
2023-02-14T14:47:45.655Z,8.13
2023-02-14T14:50:33.772Z,6.63
2023-02-14T14:53:25.289Z,8.35
2023-02-14T14:56:30.929Z,7.63
2023-02-14T14:59:35.177Z,6.82
2023-02-14T15:02:25.095Z,6.88
2023-02-14T15:05:22.993Z,7.05
2023-02-14T15:08:33.120Z,6.60
2023-02-14T15:11:47.785Z,8.70
2023-02-14T15:14:37.323Z,7.70
2023-02-14T15:17:28.711Z,7.05
2023-02-14T15:20:18.819Z,8.32
2023-02-14T15:23:05.040Z,8.00
2023-02-14T15:25:52.593Z,8.52
2023-02-14T15:28:39.201Z,7.30
2023-02-14T15:31:29.683Z,8.15
2023-02-14T15:34:15.527Z,7.15
2023-02-14T15:37:06.693Z,8.13
2023-02-14T15:39:58.015Z,7.32
2023-02-14T15:42:45.189Z,8.02
2023-02-14T15:45:31.415Z,7.82
2023-02-14T15:48:27.298Z,8.20
2023-02-14T15:51:27.099Z,8.90
2023-02-14T15:54:41.698Z,7.82
2023-02-14T15:57:29.692Z,7.68
2023-02-14T16:00:22.947Z,9.30
2023-02-14T16:03:14.622Z,12.50
2023-02-14T16:06:00.397Z,10.33
2023-02-14T16:08:55.705Z,9.43
2023-02-14T16:11:41.533Z,9.02
2023-02-14T16:14:35.371Z,10.30
2023-02-14T16:17:33.546Z,9.25
2023-02-14T16:20:43.320Z,10.02
2023-02-14T16:23:29.376Z,9.13
2023-02-14T16:26:15.352Z,9.07
2023-02-14T16:29:16.026Z,9.90
2023-02-14T16:32:17.043Z,11.52
2023-02-14T16:35:03.339Z,9.13
2023-02-14T16:37:51.805Z,8.68
2023-02-14T16:40:37.805Z,8.80
2023-02-14T16:43:25.815Z,11.60
2023-02-14T16:46:16.068Z,9.23
2023-02-14T16:49:03.583Z,10.38
2023-02-14T16:51:49.322Z,10.80
2023-02-14T16:54:38.933Z,10.20
2023-02-14T16:57:32.438Z,9.52
2023-02-14T17:00:18.065Z,9.63
2023-02-14T17:03:07.084Z,10.27
2023-02-14T17:05:52.948Z,10.10
2023-02-14T17:08:43.679Z,8.85
2023-02-14T17:11:32.465Z,9.48
2023-02-14T17:14:23.567Z,8.88
2023-02-14T17:17:10.281Z,10.07
2023-02-14T17:19:56.033Z,9.02
2023-02-14T17:22:42.923Z,9.70
2023-02-14T17:25:31.450Z,10.05
2023-02-14T17:28:16.838Z,11.10
2023-02-14T17:31:03.573Z,10.10
2023-02-14T17:33:50.401Z,7.95
2023-02-14T17:36:37.845Z,9.65
2023-02-14T17:39:23.873Z,9.05
2023-02-14T17:42:11.735Z,9.15
2023-02-14T17:44:58.796Z,9.38
2023-02-14T17:47:45.189Z,9.13
2023-02-14T17:50:34.883Z,8.75
2023-02-14T17:53:20.925Z,9.82
2023-02-14T17:56:09.311Z,9.85
2023-02-14T17:58:55.265Z,8.70
2023-02-14T18:01:40.950Z,8.70
2023-02-14T18:04:26.441Z,8.45
2023-02-14T18:07:13.980Z,10.13
2023-02-14T18:09:59.448Z,10.82
2023-02-14T18:12:44.875Z,11.65
2023-02-14T18:15:30.837Z,13.18
2023-02-14T18:18:17.009Z,11.85
2023-02-14T18:21:04.895Z,9.23
2023-02-14T18:23:50.591Z,7.80
2023-02-14T18:26:38.436Z,9.15
2023-02-14T18:29:24.126Z,9.88
2023-02-14T18:32:10.354Z,10.20
2023-02-14T18:34:55.831Z,7.93
2023-02-14T18:37:42.026Z,8.98
2023-02-14T18:40:28.146Z,9.20
2023-02-14T18:43:14.100Z,8.27
2023-02-14T18:46:04.536Z,11.93
2023-02-14T18:48:51.005Z,11.00
2023-02-14T18:51:39.501Z,11.65
2023-02-14T18:54:25.150Z,9.55
2023-02-14T18:57:10.923Z,8.73
2023-02-14T18:59:57.454Z,9.45
2023-02-14T19:02:46.033Z,9.07
2023-02-14T19:05:35.546Z,9.75
2023-02-14T19:08:22.818Z,8.45
2023-02-14T19:11:18.256Z,10.35
2023-02-14T19:14:11.207Z,9.52
2023-02-14T19:16:57.891Z,9.63
2023-02-14T19:19:46.079Z,9.40
2023-02-14T19:22:37.380Z,10.05
2023-02-14T19:25:23.956Z,8.70
2023-02-14T19:28:12.082Z,11.48
2023-02-14T19:30:59.881Z,10.15
2023-02-14T19:33:47.926Z,9.80
2023-02-14T19:36:38.301Z,9.88
2023-02-14T19:39:29.655Z,11.48
2023-02-14T19:42:16.332Z,9.85
2023-02-14T19:45:03.888Z,9.23
2023-02-14T19:47:53.737Z,10.05
2023-02-14T19:50:40.838Z,10.32
2023-02-14T19:53:29.297Z,9.77
2023-02-14T19:56:25.012Z,13.75
2023-02-14T19:59:16.442Z,12.55
2023-02-14T20:02:03.055Z,11.30
2023-02-14T20:04:50.290Z,10.30
2023-02-14T20:07:36.068Z,12.50
2023-02-14T20:10:22.383Z,11.30
2023-02-14T20:13:09.763Z,13.45
2023-02-14T20:15:55.314Z,14.20
2023-02-14T20:18:41.277Z,12.13
2023-02-14T20:21:28.545Z,12.68
2023-02-14T20:24:18.648Z,11.23
2023-02-14T20:27:05.103Z,10.73
2023-02-14T20:29:52.108Z,11.38
2023-02-14T20:32:38.438Z,12.00
2023-02-14T20:35:25.971Z,12.00
2023-02-14T20:38:12.201Z,12.48
2023-02-14T20:40:58.617Z,14.77
2023-02-14T20:43:47.620Z,11.70
2023-02-14T20:46:35.077Z,11.75
2023-02-14T20:49:23.357Z,12.70
2023-02-14T20:52:08.961Z,15.38
2023-02-14T20:54:55.133Z,14.30
2023-02-14T20:57:42.302Z,11.20
2023-02-14T21:00:30.148Z,12.00
2023-02-14T21:03:17.385Z,11.30
2023-02-14T21:06:05.623Z,12.35
2023-02-14T21:08:51.642Z,12.18
2023-02-14T21:11:37.342Z,14.82
2023-02-14T21:14:23.092Z,12.85
2023-02-14T21:17:08.956Z,17.55
2023-02-14T21:19:54.198Z,28.55
2023-02-14T21:22:40.078Z,18.83
2023-02-14T21:25:26.748Z,21.52
2023-02-14T21:28:15.270Z,11.15
2023-02-14T21:31:09.562Z,16.38
2023-02-14T21:33:58.399Z,15.93
2023-02-14T21:36:45.053Z,14.98
2023-02-14T21:39:38.003Z,15.02
2023-02-14T21:42:24.833Z,12.68
2023-02-14T21:45:31.664Z,12.40
2023-02-14T21:48:35.961Z,12.63
2023-02-14T21:51:23.682Z,13.30
2023-02-14T21:54:09.422Z,13.63
2023-02-14T21:56:56.186Z,12.82
2023-02-14T21:59:45.584Z,12.40
2023-02-14T22:02:32.231Z,12.07
2023-02-14T22:05:17.742Z,13.73
2023-02-14T22:08:05.891Z,12.15
2023-02-14T22:10:52.028Z,13.77
2023-02-14T22:13:38.525Z,14.30
2023-02-14T22:16:25.336Z,13.95
2023-02-14T22:19:15.246Z,13.70
2023-02-14T22:22:01.605Z,12.35
2023-02-14T22:30:51.044Z,11.20
2023-02-14T22:33:37.894Z,8.23
2023-02-14T22:36:23.929Z,11.45
2023-02-14T22:39:13.922Z,10.93
2023-02-14T22:42:02.426Z,12.05
2023-02-14T22:44:48.107Z,10.63
2023-02-14T22:47:36.623Z,10.82
2023-02-14T22:50:22.071Z,10.43
2023-02-14T22:53:09.517Z,10.82
2023-02-14T22:55:55.625Z,13.52
2023-02-14T22:58:41.844Z,13.52
2023-02-14T23:01:28.185Z,14.88
2023-02-14T23:04:15.924Z,11.57
2023-02-14T23:07:01.542Z,11.00
2023-02-14T23:09:50.252Z,9.80
2023-02-14T23:12:54.111Z,11.60
2023-02-14T23:16:00.325Z,10.60
2023-02-14T23:19:04.456Z,10.73
2023-02-14T23:21:55.916Z,10.50
2023-02-14T23:24:45.643Z,11.55
2023-02-14T23:27:38.239Z,11.57
2023-02-14T23:30:24.041Z,9.98
2023-02-14T23:33:11.702Z,12.15
2023-02-14T23:35:57.113Z,10.93
2023-02-14T23:38:42.594Z,9.80
2023-02-14T23:41:46.679Z,8.55
2023-02-14T23:44:33.425Z,10.25
2023-02-14T23:47:18.832Z,9.77
2023-02-14T23:50:04.529Z,10.23
2023-02-14T23:52:51.095Z,9.85
2023-02-14T23:55:36.895Z,10.52
2023-02-14T23:58:22.222Z,9.93
